Timeline UpdatesTrip UpdatesNews PostsPvt Posts♥♥Travel TipsAdmin PostsConv PostsFollowed PostsChat RequestsBlog PostsPNR Posts

Disclaimer
Search
 
 
Tue Oct 21, 2014 15:50:59 ISTHomeTrainsΣChainsAtlasPNRForumGalleryNewsFAQTripsMembersLoginFeedback
No Recent News for this Train
Other Trains in the News **new
Latest...
Tr.No.17406 Adilabad -Tirupati Express is cancelled o­n 27.04.2014.
Sat Apr 26, 2014 (03:22PM)
⇐ Return Journey: Train# 17405

17406/Krishna Express

Time-Table HAS CHANGED.
Sep 03 2014 (11:11AM)
Change Departure Station:
Change Arrival Station:
Post a Train Travel TipPost a Train Travel Tip **new
Post a Comment/Question/Picture/VideoPost a Comment/Question/Picture/Video
Inaugural Run
Wed Oct 02, 1974
Pantry/Catering
✕ NO Pantry Car
✓ Catering Avbl
Loco/Rake Reversals
SC/Secunderabad Junction (10); MUE/Mudkhed Junction (4);
RSA - Rake Sharing
17405/17406/17409/17410 has RSA.
Rake/Coach Composition
Loco-SLR-GS-D6-D5-D4-D3-D2-D1-S2-S1-C1-B1-GS-GS-GS-GS-GS-SLR
Loco
ADB - SC: KZJ WDG-3A. SC - TPTY: LGD WAP4/7.
News    PNR    Forum    Time-Table    Availability    Fare Chart    Map    Arr/Dep History    Trips    Gallery    ΣChains    X/O    Timeline    
Travel Time: 0h 12m    0 halts    Distance: 10 km    Avg Speed: 50 km/hr
Type: Mail/Express
Zone: SCR/South Central
Departs @ 08:20 (Avg 52m late)
Platform# 2
SMTWTFS
Kazipet Junction/KZJ 
Arrives @ 08:32 (Avg 1h 2m late)
Platform# 1
SMTWTFS
Warangal/WL 

0 halts. 0 intermediate Stations between Kazipet Junction and Warangal

Show ALL intermediate Stations  Show Old Time-Table

#TrkCodeStation NameX/OArrivesAvgDepartsAvgHaltPFDay#KmSpeedElevZoneAddress
1|--|ADBAdilabad (3)  -20:45+111-543.480248mSCRAdilabad, Telangana
2|--|KNVTKinwat (2)  21:03 21:19+2121:04 21:20+221m11-498.163319mSCRKinwat, Maharashtra
3|--|BHBKBodhadi Bujrug  21:44 21:34+1621:45 21:35+171m--1-483.475357mSCRKinwat, Maharashtra
4|--|SHSKSahasrakund  22:14 21:59+2422:15 22:00+251m--1-453.349402mSCRNanded, Maharashtra
5|--|HEMHimayatnagar  22:29 22:19+2222:30 22:20+221m--1-437.737398mSCRNanded, Maharashtra
6|--|BOKRBhokar  23:24 23:19+523:25 23:20+71m11-401.628460mSCRBhokar, Maharashtra
7|--|MUEMudkhed Junction (4)O↵¶00:05-200:15+810m22-380.434378mSCRMudkhed, Maharashtra
8|--|UMRIUmri (1)X  00:49-100:50+41m12-360.965381mSCRHuzur Sahib Nanded, Maharashtra
9|--|DABDharmabad (2)X  01:17+1401:18+181m12-331.535354mSCRDegaon, Maharashtra
10|--|BSXBasar (2)X  01:35+1301:37+172m12-321.753358mSCRDist Adilabad, Telangana
11|--|NZBNizamabad (3)  02:10+1702:15+235m12-292.371384mSCRNizamabad, Telangana
12|--|KMCKamareddi (3)  03:00 02:59+3003:01+301 2m12-240.467528mSCRNizamabad Dist., Telangana
13|--|AKEAkanapet (1)O  03:24+3003:25+301m12-214.792566mSCRMedak District., Telangana
14|--|MZLMirzapalli (1)  03:32+3103:33+311m12-203.943530mSCRMedak Dist., Telangana
15|-=|BMOBolarum (3)X  04:55+704:56+81m12-145.227597mSCRSecunderabad, Telangana
16/-=|MJFMalkajgiri (3)X  05:19+205:20+21m22-135.18535mSCRSecunderabad, Telangana
17|--|SCSecunderabad Junction (10)X05:45+1506:05+1720m62-131.643539mSCRSecunderabad 500003, Telangana
18/==/MLYMoula Ali (2)X  06:13+3106:14+311m12-125.957520mSCRSecunderabad, Telangana
19/==/CHZCharlapalli (2)  06:21+3606:22+361m22-119.276523mSCRRangareddy Dist., Telangana
20/==/BGBhongir (3)X  06:49+3706:50+391m22-85.397455mSCRNalgonda Dist., Telangana
21/==/RAGRaigir (2)X  06:54-06:55-1m22-78.873415mSCRNalgonda, Telangana
22/==/ALERAler (2)X  07:08+4407:09+461m22-63.072366mSCRNalgonda Dist., Telangana
23/==/PBPPembarti (2)  07:17+4607:18+481m22-53.441382mSCRWarangal Dist., Telangana
24/==/ZNJangaon (2)  07:26+4907:27+501m22-47.975380mSCRWarangal Dist., Telangana
25/==/RGPRaghunathpalli (2)  07:36+5107:37+511m22-36.684357mSCRWarangal Dist., Telangana
26/==/GNPGhanpur (2)  07:49+5607:50+581m22-19.843344mSCRWarangal Dist. / Enq Ph : 08711 220231, Telangana
27/==/KZJKazipet Junction (3)»X  08:18+4608:20+522m220.051292mSCRWarangal Dist., Telangana
28/==/WLWarangal (3)•  08:32+1:0208:34+1:042m1210.274271mSCRWarangal., Telangana
29/==/NKDNekonda (2)  08:58+1:0608:59+1:071m1239.977236mSCRWarangal Dist., Telangana
30/==/KDMKesamudram (2)X  09:11+1:1109:12+1:111m1255.481223mSCRWarangal Dist., Telangana
31/==/MABDMahbubabad (2)  09:23+1:1509:24+1:171m1270.3107200mSCRWarangal Dist., Telangana
32/==/GLAGarla (2)X  09:35-09:36-1m1290.018156mSCRKhammam Dist., Telangana
33/==/DKJDornakal Junction (3)  09:52+1:1009:54+1:092m2294.792153mSCRWarangal District, Telangana
34/==/KMTKhammam (2)X  10:09+5810:11+582m12117.788118mSCRKhammam 507001, Telangana
35/==/BKLBona Kalu (2)  10:30+1:2310:31+1:231m12145.68597mSCRKhammam Dist., Telangana
36/==/MDRMadhira (2)  10:43+1:3210:44+1:321m12162.58461mSCRKhammam Dist., Telangana
37/==/YPErrupalem (2)X  10:55+1:3810:56+1:381m--2178.01857mSCRKhammam Dist., Telangana
38/==/KIKondapalli (2)XO  12:18+3412:20+352m22202.52735mSCRKondapalli, Andhra Pradesh
39/==/BZAVijayawada Junction (10)X  12:55+2813:15+2520m102218.14524mSCRVijayawada 520001, Andhra Pradesh
40/==/PVDPeddavadiapudi (3)  13:31+3113:32+331m--2230.06520mSCRKL University to NH 5, Andhra Pradesh
41/==/DIGDuggirala (3)X  13:41+3713:42+381m--2239.73616mSCRDuggirala, Andhra Pradesh
42/==/TELTenali Junction (5)  13:58+3414:00+362m32249.47716mSCRTel: 08644-227834, Andhra Pradesh
43/==/TSRTsunduru (3)  14:09+3814:10+391m--2260.95712mSCRTsunduru, Andhra Pradesh
44/==/NDONidubrolu (3)  14:21+4014:22+411m--2271.4699mSCRNidubrolu, Andhra Pradesh
45/==/BPPBapatla (3)X  14:40+4214:41+441m--2292.08210mSCRBapatla, Andhra Pradesh
46/==/CLXChirala (4)  14:52+5114:53+531m--2307.0598mSCRChirala, Andhra Pradesh
47/==/VTMVetapalem (3)X  15:01+5515:02+571m--2314.9758mSCRVetapalem, Andhra Pradesh
48/==/CJMChinnaganjam (3)  15:12+5515:13+571m--2327.3779mSCRChinna Ganjam, Andhra Pradesh
49/==/ANBAmmanabrolu (3)X  15:24+5915:25+1:001m--2341.54316mSCRAmmanabrolu, Andhra Pradesh
50/==/OGLOngole (3)  15:46+5615:48+592m32356.47012mSCROngole, Andhra Pradesh
51/==/TNRTanguturu (3)  16:04+1:0616:05+1:071m12375.07210mSCRTanguturu, Andhra Pradesh
52/==/SKMSingarayakonda (2)X  16:13+1:0516:14+1:061m22384.69926mSCRSingarayakonda, Andhra Pradesh
53/==/KVZKavali (4)X  16:37+3016:39+302m22422.48221mSCRKavali, Andhra Pradesh
54/==/BTTRBitragunta (2)X  16:51+4116:52+351m22438.84515mSCRBitragunta, Andhra Pradesh
55/==/NLRNellore (4)  17:38+2717:40+272m32473.24821mSCRNellore, Andhra Pradesh
56/==/VDEVedayapalem (2)XO  17:49+1217:50+131m22480.41927mSCRNellore, Andhra Pradesh
57/==/GDRGudur Junction (3)  19:08 19:28+2019:10 19:30+192m32511.66819mSCRGudur, Andhra Pradesh
58/==/VDDVendodu (2)X  19:27 19:47+3919:28 19:48+411m--2530.89955mSCRNellore, Andhra Pradesh
59/==/VKIVenkatagiri (3)  19:40 19:58+4619:41 20:00+491 2m22547.48277mSCRNellore District, Andhra Pradesh
60/==/KHTSri Kalahasti (2)X  20:01 20:18+4920:02 20:20+491 2m12571.87068mSCRChittoor District, Andhra Pradesh
61/==/RURenigunta Junction (5)O  20:35 20:40+3620:40 20:45+365m--2595.015113mSCRChittoor District, Andhra Pradesh
62/==/TPTYTirupati Main (5)  21:25+18-12604.9-150mSCRChittoor Distt, Andhra Pradesh
Scroll to Top
Scroll to Bottom